Погода Гази Бабена неделю

Скопье, Македония

25 - 31 июля
  • 25июля
    Сегодня
    +16°
    +33°
    Ясно и безоблачно
    ВремяПогодаТемператураВлажностьДавлениеВетер, м/сВероятность осадков
    02:00Практически безоблачно+21°C85 %737 мм1.5 м/с1 %
    05:00Практически безоблачно+19°C90 %737 мм1.2 м/с2 %
    08:00Практически безоблачно+24°C65 %737 мм1.9 м/с5 %
    11:00Ясно и безоблачно+28°C41 %737 мм4.7 м/с22 %
    14:00Ясно и безоблачно+32°C30 %735 мм5.0 м/с12 %
    17:00Ясно и безоблачно+32°C27 %735 мм5.8 м/с1 %
    20:00Ясно и безоблачно+26°C36 %735 мм4.6 м/с2 %
    23:00Ясно и безоблачно+22°C51 %737 мм2.0 м/с2 %
  • 26июля
    Пятница
    +16°
    +33°
    Ясно и безоблачно
    ВремяПогодаТемператураВлажностьДавлениеВетер, м/сВероятность осадков
    02:00Ясно и безоблачно+19°C62 %737 мм1.3 м/с2 %
    05:00Ясно и безоблачно+17°C71 %737 мм1.1 м/с2 %
    08:00Ясно и безоблачно+23°C52 %738 мм1.1 м/с2 %
    11:00Ясно и безоблачно+28°C32 %738 мм3.4 м/с2 %
    14:00Ясно и безоблачно+32°C26 %737 мм3.5 м/с2 %
    17:00Ясно и безоблачно+32°C22 %737 мм5.1 м/с2 %
    20:00Ясно и безоблачно+27°C31 %738 мм3.8 м/с2 %
    23:00Ясно и безоблачно+22°C49 %740 мм1.4 м/с2 %
  • 27июля
    Суббота
    +18°
    +35°
    Ясно и безоблачно
    ВремяПогодаТемператураВлажностьДавлениеВетер, м/сВероятность осадков
    02:00Ясно и безоблачно+18°C62 %740 мм1.1 м/с2 %
    05:00Ясно и безоблачно+16°C71 %740 мм0.8 м/с2 %
    08:00Ясно и безоблачно+23°C49 %742 мм0.6 м/с2 %
    11:00Ясно и безоблачно+29°C34 %742 мм1.5 м/с2 %
    14:00Ясно и безоблачно+33°C28 %742 мм1.6 м/с2 %
    17:00Ясно и безоблачно+35°C25 %741 мм2.4 м/с2 %
    20:00Ясно и безоблачно+28°C30 %741 мм2.6 м/с2 %
    23:00Ясно и безоблачно+22°C48 %742 мм1.0 м/с2 %
  • 28июля
    Воскресенье
    +17°
    +37°
    Ясно и безоблачно
    ВремяПогодаТемператураВлажностьДавлениеВетер, м/сВероятность осадков
    02:00Ясно и безоблачно+20°C52 %743 мм0.1 м/с2 %
    05:00Ясно и безоблачно+18°C45 %743 мм0.2 м/с2 %
    08:00Ясно и безоблачно+24°C43 %744 мм0.2 м/с2 %
    11:00Ясно и безоблачно+30°C32 %744 мм0.6 м/с2 %
    14:00Ясно и безоблачно+36°C22 %743 мм0.5 м/с2 %
    17:00Ясно и безоблачно+37°C18 %741 мм2.0 м/с2 %
    20:00Ясно и безоблачно+30°C31 %740 мм2.3 м/с2 %
    23:00Ясно и безоблачно+25°C45 %741 мм0.6 м/с2 %
  • 29июля
    Понедельник
    +20°
    +38°
    Ясно и безоблачно
    ВремяПогодаТемператураВлажностьДавлениеВетер, м/сВероятность осадков
    02:00Ясно и безоблачно+22°C41 %741 мм0.0 м/с2 %
    05:00Ясно и безоблачно+20°C42 %741 мм0.3 м/с2 %
    08:00Ясно и безоблачно+27°C39 %742 мм0.5 м/с2 %
    11:00Ясно и безоблачно+33°C27 %741 мм3.2 м/с2 %
    14:00Ясно и безоблачно+37°C21 %740 мм5.0 м/с2 %
    17:00Ясно и безоблачно+37°C20 %739 мм6.4 м/с2 %
    20:00Ясно и безоблачно+31°C34 %739 мм3.8 м/с2 %
    23:00Ясно и безоблачно+27°C49 %740 мм2.1 м/с2 %
Мы используем cookies
Соглашаюсь